createdAt,value
2023-05-13T00:00:02.089Z,3.40
2023-05-13T00:02:29.132Z,3.55
2023-05-13T00:04:56.471Z,3.58
2023-05-13T00:07:23.358Z,3.30
2023-05-13T00:09:50.320Z,3.38
2023-05-13T00:12:17.246Z,3.47
2023-05-13T00:14:44.088Z,3.65
2023-05-13T00:17:11.152Z,3.72
2023-05-13T00:19:38.080Z,3.38
2023-05-13T00:22:05.243Z,3.17
2023-05-13T00:24:32.156Z,4.03
2023-05-13T00:26:59.365Z,3.80
2023-05-13T00:29:26.292Z,3.55
2023-05-13T00:31:53.271Z,3.60
2023-05-13T00:34:20.317Z,3.92
2023-05-13T00:36:47.275Z,3.50
2023-05-13T00:39:14.301Z,3.85
2023-05-13T00:41:41.189Z,3.63
2023-05-13T00:44:08.174Z,3.53
2023-05-13T00:46:35.229Z,3.35
2023-05-13T00:49:04.485Z,4.15
2023-05-13T00:51:35.531Z,3.67
2023-05-13T00:54:02.560Z,3.53
2023-05-13T00:56:29.495Z,4.13
2023-05-13T00:58:56.434Z,3.90
2023-05-13T01:01:38.487Z,3.97
2023-05-13T01:04:29.277Z,4.35
2023-05-13T01:07:17.250Z,3.97
2023-05-13T01:09:50.496Z,4.03
2023-05-13T01:12:25.857Z,4.85
2023-05-13T01:14:59.428Z,5.05
2023-05-13T01:17:41.781Z,4.90
2023-05-13T01:20:08.963Z,5.65
2023-05-13T01:22:35.966Z,6.07
2023-05-13T01:25:02.895Z,7.32
2023-05-13T01:27:29.951Z,10.48
2023-05-13T01:29:57.496Z,9.50
2023-05-13T01:32:25.350Z,8.88
2023-05-13T01:34:53.756Z,9.45
2023-05-13T01:37:21.124Z,10.57
2023-05-13T01:39:48.611Z,10.50
2023-05-13T01:42:16.139Z,9.70
2023-05-13T01:44:44.055Z,9.43
2023-05-13T01:47:11.215Z,9.40
2023-05-13T01:49:38.125Z,8.68
2023-05-13T01:52:05.248Z,8.75
2023-05-13T01:54:32.410Z,8.90
2023-05-13T01:56:59.375Z,9.32
2023-05-13T01:59:26.368Z,9.82
2023-05-13T02:01:53.335Z,10.02
2023-05-13T02:04:22.747Z,9.75
2023-05-13T02:06:49.575Z,9.30
2023-05-13T02:09:16.438Z,10.45
2023-05-13T02:11:43.669Z,10.88
2023-05-13T02:14:10.737Z,12.68
2023-05-13T02:16:38.024Z,12.50
2023-05-13T02:19:05.144Z,11.77
2023-05-13T02:21:32.362Z,10.68
2023-05-13T02:23:59.246Z,9.75
2023-05-13T02:26:26.483Z,11.02
2023-05-13T02:28:53.348Z,9.35
2023-05-13T02:31:20.249Z,10.80
2023-05-13T02:33:47.210Z,9.80
2023-05-13T02:36:14.105Z,9.77
2023-05-13T02:38:41.232Z,9.52
2023-05-13T02:41:08.163Z,10.32
2023-05-13T02:43:35.011Z,11.05
2023-05-13T02:46:03.884Z,9.45
2023-05-13T02:48:31.151Z,10.25
2023-05-13T02:50:58.024Z,10.98
2023-05-13T02:53:24.885Z,10.25
2023-05-13T02:55:51.964Z,11.52
2023-05-13T02:58:18.834Z,11.10
2023-05-13T03:00:45.812Z,10.70
2023-05-13T03:03:12.801Z,11.95
2023-05-13T03:05:40.339Z,11.15
2023-05-13T03:08:07.309Z,11.13
2023-05-13T03:10:35.318Z,10.55
2023-05-13T03:13:02.370Z,10.70
2023-05-13T03:15:29.278Z,10.13
2023-05-13T03:17:58.139Z,10.10
2023-05-13T03:20:25.113Z,9.77
2023-05-13T03:22:52.025Z,9.65
2023-05-13T03:25:18.996Z,9.10
2023-05-13T03:27:45.884Z,8.60
2023-05-13T03:30:13.204Z,8.55
2023-05-13T03:32:40.277Z,9.00
2023-05-13T03:35:07.492Z,9.10
2023-05-13T03:37:34.360Z,8.95
2023-05-13T03:40:01.248Z,9.25
2023-05-13T03:42:30.249Z,8.60
2023-05-13T03:44:57.321Z,7.97
2023-05-13T03:47:24.687Z,8.20
2023-05-13T03:49:51.725Z,8.93
2023-05-13T03:52:18.650Z,9.07
2023-05-13T03:54:45.634Z,8.27
2023-05-13T03:57:12.540Z,8.90
2023-05-13T03:59:39.416Z,7.70
2023-05-13T04:02:06.537Z,8.00
2023-05-13T04:04:33.589Z,8.55
2023-05-13T04:07:00.600Z,8.50
2023-05-13T04:09:27.529Z,8.82
2023-05-13T04:11:54.405Z,7.68
2023-05-13T04:14:21.486Z,8.20
2023-05-13T04:16:48.683Z,8.20
2023-05-13T04:19:15.778Z,8.23
2023-05-13T04:21:42.666Z,7.70
2023-05-13T04:24:09.832Z,8.15
2023-05-13T04:26:38.398Z,7.80
2023-05-13T04:29:05.427Z,7.68
2023-05-13T04:31:32.525Z,8.48
2023-05-13T04:33:59.611Z,8.80
2023-05-13T04:36:26.536Z,8.77
2023-05-13T04:38:53.532Z,10.07
2023-05-13T04:41:21.338Z,8.48
2023-05-13T04:43:48.188Z,7.93
2023-05-13T04:46:15.175Z,8.70
2023-05-13T04:48:43.001Z,8.90
2023-05-13T04:51:10.428Z,9.05
2023-05-13T04:53:37.921Z,8.68
2023-05-13T04:56:05.169Z,8.85
2023-05-13T04:58:33.055Z,8.65
2023-05-13T05:00:59.927Z,8.23
2023-05-13T05:03:26.849Z,8.10
2023-05-13T05:05:53.759Z,7.30
2023-05-13T05:08:20.680Z,7.60
2023-05-13T05:10:47.628Z,6.82
2023-05-13T05:13:14.493Z,6.60
2023-05-13T05:15:41.994Z,6.70
2023-05-13T05:18:10.145Z,5.72
2023-05-13T05:20:38.215Z,5.43
2023-05-13T05:23:05.131Z,5.40
2023-05-13T05:25:32.100Z,5.22
2023-05-13T05:27:58.983Z,4.80
2023-05-13T05:30:26.195Z,4.75
2023-05-13T05:32:53.227Z,4.38
2023-05-13T05:35:20.178Z,4.72
2023-05-13T05:37:47.182Z,5.28
2023-05-13T05:40:14.070Z,4.63
2023-05-13T05:42:40.981Z,4.95
2023-05-13T05:45:08.394Z,4.82
2023-05-13T05:47:35.456Z,4.63
2023-05-13T05:50:02.391Z,4.60
2023-05-13T05:52:29.340Z,4.55
2023-05-13T05:54:56.250Z,4.35
2023-05-13T05:57:23.160Z,3.58
2023-05-13T05:59:50.813Z,4.20
2023-05-13T06:02:17.745Z,3.80
2023-05-13T06:04:44.920Z,4.20
2023-05-13T06:07:12.024Z,4.20
2023-05-13T06:09:39.061Z,3.92
2023-05-13T06:12:06.209Z,3.85
2023-05-13T06:14:33.166Z,3.53
2023-05-13T06:17:00.094Z,3.38
2023-05-13T06:19:26.959Z,3.75
2023-05-13T06:21:53.909Z,3.22
2023-05-13T06:24:20.853Z,3.20
2023-05-13T06:26:48.044Z,2.67
2023-05-13T06:29:15.089Z,2.70
2023-05-13T06:31:42.078Z,3.20
2023-05-13T06:34:08.965Z,2.90
2023-05-13T06:36:35.963Z,2.35
2023-05-13T06:39:03.420Z,2.60
2023-05-13T06:41:30.307Z,2.85
2023-05-13T06:43:57.167Z,2.72
2023-05-13T06:46:24.108Z,2.45
2023-05-13T06:48:52.525Z,2.80
2023-05-13T06:51:19.538Z,3.00
2023-05-13T06:53:46.455Z,2.60
2023-05-13T06:56:13.346Z,3.10
2023-05-13T06:58:40.275Z,3.25
2023-05-13T07:01:07.162Z,2.90
2023-05-13T07:03:34.173Z,3.17
2023-05-13T07:06:01.321Z,2.92
2023-05-13T07:08:29.350Z,3.05
2023-05-13T07:10:56.290Z,3.10
2023-05-13T07:13:23.801Z,2.97
2023-05-13T07:15:50.783Z,2.88
2023-05-13T07:18:17.666Z,2.53
2023-05-13T07:20:45.261Z,2.97
2023-05-13T07:23:12.422Z,2.60
2023-05-13T07:25:39.322Z,2.40
2023-05-13T07:28:06.323Z,2.53
2023-05-13T07:30:33.217Z,2.55
2023-05-13T07:33:00.210Z,2.58
2023-05-13T07:35:27.580Z,2.45
2023-05-13T07:37:54.486Z,2.20
2023-05-13T07:40:21.748Z,2.20
2023-05-13T07:42:49.047Z,2.47
2023-05-13T07:45:16.086Z,2.20
2023-05-13T07:47:44.581Z,2.90
2023-05-13T07:50:11.800Z,2.40
2023-05-13T07:52:38.917Z,2.88
2023-05-13T07:55:06.392Z,2.58
2023-05-13T07:57:34.853Z,2.95
2023-05-13T08:00:01.810Z,2.45
2023-05-13T08:02:34.764Z,2.35
2023-05-13T08:05:02.363Z,2.30
2023-05-13T08:07:29.438Z,2.45
2023-05-13T08:09:56.658Z,2.63
2023-05-13T08:12:23.561Z,2.40
2023-05-13T08:14:50.451Z,2.38
2023-05-13T08:17:19.742Z,2.85
2023-05-13T08:19:47.249Z,2.38
2023-05-13T08:22:14.267Z,2.40
2023-05-13T08:24:43.223Z,2.20
2023-05-13T08:27:10.284Z,2.20
2023-05-13T08:29:37.158Z,2.00
2023-05-13T08:32:05.403Z,2.40
2023-05-13T08:34:32.330Z,2.10
2023-05-13T08:37:00.535Z,2.58
2023-05-13T08:39:28.798Z,2.47
2023-05-13T08:41:58.064Z,2.22
2023-05-13T08:44:29.628Z,2.25
2023-05-13T08:47:28.137Z,2.30
2023-05-13T08:49:56.598Z,2.30
2023-05-13T08:52:24.982Z,2.17
2023-05-13T08:54:51.885Z,2.30
2023-05-13T08:57:19.138Z,2.58
2023-05-13T08:59:46.163Z,2.30
2023-05-13T09:02:13.157Z,2.40
2023-05-13T09:04:42.344Z,2.83
2023-05-13T09:07:10.892Z,2.80
2023-05-13T09:09:37.925Z,2.72
2023-05-13T09:12:06.021Z,2.42
2023-05-13T09:14:34.637Z,2.55
2023-05-13T09:17:02.467Z,2.70
2023-05-13T09:19:29.606Z,2.80
2023-05-13T09:21:57.668Z,2.58
2023-05-13T09:24:24.634Z,2.60
2023-05-13T09:26:52.333Z,2.88
2023-05-13T09:29:29.855Z,2.80
2023-05-13T09:31:59.605Z,2.80
2023-05-13T09:34:31.566Z,2.60
2023-05-13T09:37:08.225Z,2.80
2023-05-13T09:39:41.538Z,3.05
2023-05-13T09:42:16.677Z,2.80
2023-05-13T09:44:45.474Z,2.85
2023-05-13T09:47:14.532Z,2.83
2023-05-13T09:49:42.590Z,2.45
2023-05-13T09:52:11.402Z,2.10
2023-05-13T09:54:38.764Z,2.55
2023-05-13T09:57:06.445Z,2.30
2023-05-13T09:59:36.162Z,2.60
2023-05-13T10:02:06.870Z,2.05
2023-05-13T10:04:34.568Z,2.40
2023-05-13T10:07:03.934Z,2.40
2023-05-13T10:09:39.227Z,2.10
2023-05-13T10:12:08.685Z,2.25
2023-05-13T10:14:38.278Z,2.53
2023-05-13T10:17:06.800Z,2.08
2023-05-13T10:22:21.874Z,2.30
2023-05-13T10:24:53.085Z,2.40
2023-05-13T10:27:22.970Z,2.00
2023-05-13T10:29:54.541Z,2.47
2023-05-13T10:32:29.398Z,2.58
2023-05-13T10:35:15.547Z,2.33
2023-05-13T10:38:16.667Z,2.20
2023-05-13T10:43:38.872Z,2.30
2023-05-13T10:46:16.870Z,2.50
2023-05-13T10:48:55.325Z,2.00
2023-05-13T10:51:24.763Z,2.67
2023-05-13T10:54:05.952Z,2.03
2023-05-13T10:56:33.142Z,1.80
2023-05-13T10:59:17.976Z,1.95
2023-05-13T11:02:06.381Z,2.65
2023-05-13T11:05:02.862Z,2.22
2023-05-13T11:07:32.277Z,2.22
2023-05-13T11:10:00.339Z,2.50
2023-05-13T11:12:27.368Z,2.47
2023-05-13T11:15:03.652Z,2.58
2023-05-13T11:17:37.495Z,2.50
2023-05-13T11:20:04.753Z,2.20
2023-05-13T11:22:38.248Z,2.33
2023-05-13T11:25:12.008Z,2.42
2023-05-13T11:27:54.432Z,2.25
2023-05-13T11:30:24.092Z,2.22
2023-05-13T11:32:54.418Z,2.20
2023-05-13T11:35:25.984Z,2.73
2023-05-13T11:37:53.988Z,2.15
2023-05-13T11:40:24.656Z,2.05
2023-05-13T11:42:51.638Z,2.30
2023-05-13T11:45:20.613Z,2.20
2023-05-13T11:47:48.211Z,2.65
2023-05-13T11:50:27.127Z,2.58
2023-05-13T11:52:56.559Z,2.55
2023-05-13T11:55:27.467Z,2.45
2023-05-13T11:57:55.041Z,2.15
2023-05-13T12:00:27.304Z,2.40
2023-05-13T12:02:55.953Z,2.40
2023-05-13T12:05:23.816Z,2.03
2023-05-13T12:07:51.533Z,2.38
2023-05-13T12:10:18.462Z,2.25
2023-05-13T12:12:46.257Z,2.10
2023-05-13T12:15:16.053Z,2.60
2023-05-13T12:17:43.550Z,2.58
2023-05-13T12:20:12.030Z,2.40
2023-05-13T12:22:44.899Z,2.20
2023-05-13T12:25:36.997Z,1.85
2023-05-13T12:28:30.468Z,2.35
2023-05-13T12:31:01.653Z,2.50
2023-05-13T12:33:31.087Z,2.40
2023-05-13T12:36:28.110Z,2.38
2023-05-13T12:39:05.909Z,2.25
2023-05-13T12:41:35.129Z,2.50
2023-05-13T12:44:03.316Z,2.30
2023-05-13T12:46:30.633Z,2.17
2023-05-13T12:48:59.683Z,2.20
2023-05-13T12:51:27.149Z,2.30
2023-05-13T12:53:54.685Z,2.05
2023-05-13T12:56:25.829Z,2.50
2023-05-13T12:58:55.900Z,2.38
2023-05-13T13:01:23.101Z,2.20
2023-05-13T13:03:50.310Z,2.50
2023-05-13T13:06:17.546Z,2.10
2023-05-13T13:08:44.524Z,2.10
2023-05-13T13:11:15.021Z,2.00
2023-05-13T13:13:42.012Z,2.60
2023-05-13T13:16:09.511Z,2.30
2023-05-13T13:18:36.753Z,2.20
2023-05-13T13:21:05.361Z,2.38
2023-05-13T13:23:32.303Z,2.30
2023-05-13T13:25:59.405Z,2.22
2023-05-13T13:28:27.666Z,2.75
2023-05-13T13:30:54.737Z,2.10
2023-05-13T13:33:22.433Z,2.00
2023-05-13T13:35:49.663Z,2.20
2023-05-13T13:38:16.597Z,2.22
2023-05-13T13:40:43.620Z,2.08
2023-05-13T13:43:10.603Z,3.15
2023-05-13T13:45:37.550Z,2.42
2023-05-13T13:48:04.744Z,1.80
2023-05-13T13:50:31.858Z,2.30
2023-05-13T13:52:58.717Z,2.05
2023-05-13T13:55:26.613Z,2.22
2023-05-13T13:57:53.738Z,2.10
2023-05-13T14:00:21.031Z,2.38
2023-05-13T14:02:48.615Z,2.50
2023-05-13T14:05:16.241Z,2.10
2023-05-13T14:07:43.253Z,2.65
2023-05-13T14:10:10.664Z,2.25
2023-05-13T14:12:38.526Z,2.35
2023-05-13T14:15:06.235Z,2.40
2023-05-13T14:17:33.906Z,2.70
2023-05-13T14:20:00.897Z,2.83
2023-05-13T14:22:27.925Z,2.40
2023-05-13T14:24:54.801Z,2.55
2023-05-13T14:27:22.911Z,2.30
2023-05-13T14:29:50.028Z,2.28
2023-05-13T14:32:17.367Z,2.58
2023-05-13T14:34:44.357Z,2.72
2023-05-13T14:37:11.607Z,2.45
2023-05-13T14:39:38.480Z,2.50
2023-05-13T14:42:06.540Z,2.80
2023-05-13T14:44:33.433Z,2.40
2023-05-13T14:47:00.744Z,2.40
2023-05-13T14:49:27.717Z,2.40
2023-05-13T14:51:54.728Z,2.90
2023-05-13T14:54:22.184Z,2.42
2023-05-13T14:56:49.169Z,2.58
2023-05-13T14:59:16.189Z,3.03
2023-05-13T15:01:43.191Z,2.03
2023-05-13T15:04:10.621Z,2.42
2023-05-13T15:06:38.783Z,2.85
2023-05-13T15:09:06.228Z,2.70
2023-05-13T15:11:33.653Z,2.33
2023-05-13T15:14:01.592Z,2.50
2023-05-13T15:16:28.681Z,2.15
2023-05-13T15:18:55.967Z,2.20
2023-05-13T15:21:23.155Z,2.30
2023-05-13T15:23:50.166Z,2.40
2023-05-13T15:26:17.197Z,2.72
2023-05-13T15:28:44.051Z,2.10
2023-05-13T15:31:11.095Z,2.47
2023-05-13T15:33:38.159Z,2.67
2023-05-13T15:36:06.229Z,2.63
2023-05-13T15:38:33.219Z,2.50
2023-05-13T15:41:00.350Z,2.30
2023-05-13T15:43:28.394Z,2.17
2023-05-13T15:45:55.429Z,2.60
2023-05-13T15:48:22.543Z,2.70
2023-05-13T15:50:49.422Z,2.63
2023-05-13T15:53:16.281Z,2.30
2023-05-13T15:55:43.181Z,2.40
2023-05-13T15:58:10.101Z,2.65
2023-05-13T16:00:37.163Z,2.15
2023-05-13T16:03:04.157Z,2.30
2023-05-13T16:05:31.228Z,3.00
2023-05-13T16:07:58.198Z,2.13
2023-05-13T16:10:25.325Z,2.75
2023-05-13T16:12:52.369Z,2.85
2023-05-13T16:15:19.320Z,2.70
2023-05-13T16:17:46.444Z,2.35
2023-05-13T16:20:13.597Z,2.42
2023-05-13T16:22:40.800Z,2.28
2023-05-13T16:25:08.990Z,2.50
2023-05-13T16:27:36.689Z,2.13
2023-05-13T16:30:07.539Z,2.30
2023-05-13T16:32:35.133Z,2.40
2023-05-13T16:35:03.681Z,2.53
2023-05-13T16:37:31.429Z,2.50
2023-05-13T16:39:58.437Z,2.42
2023-05-13T16:42:25.930Z,2.83
2023-05-13T16:44:52.799Z,3.03
2023-05-13T16:47:19.737Z,2.33
2023-05-13T16:49:49.884Z,2.92
2023-05-13T16:52:17.129Z,2.75
2023-05-13T16:54:44.814Z,3.00
2023-05-13T16:57:11.934Z,3.00
2023-05-13T16:59:38.879Z,2.75
2023-05-13T17:02:06.618Z,2.83
2023-05-13T17:04:34.114Z,2.90
2023-05-13T17:07:01.390Z,2.60
2023-05-13T17:09:29.675Z,2.40
2023-05-13T17:11:56.904Z,2.58
2023-05-13T17:14:23.785Z,2.80
2023-05-13T17:16:51.099Z,2.95
2023-05-13T17:19:18.087Z,2.55
2023-05-13T17:21:45.020Z,2.90
2023-05-13T17:24:11.992Z,2.50
2023-05-13T17:26:39.231Z,2.90
2023-05-13T17:29:06.458Z,2.67
2023-05-13T17:31:33.899Z,2.30
2023-05-13T17:34:00.991Z,2.50
2023-05-13T17:36:28.069Z,2.80
2023-05-13T17:38:55.132Z,2.70
2023-05-13T17:41:22.624Z,2.72
2023-05-13T17:43:49.533Z,2.47
2023-05-13T17:46:16.656Z,3.20
2023-05-13T17:48:43.659Z,3.03
2023-05-13T17:51:11.530Z,2.78
2023-05-13T17:53:38.446Z,2.85
2023-05-13T17:56:06.362Z,5.80
2023-05-13T17:58:33.270Z,2.80
2023-05-13T18:01:00.468Z,2.65
2023-05-13T18:03:27.396Z,3.10
2023-05-13T18:05:54.450Z,2.50
2023-05-13T18:08:21.497Z,2.78
2023-05-13T18:10:48.930Z,2.60
2023-05-13T18:13:16.095Z,2.70
2023-05-13T18:15:43.325Z,2.80
2023-05-13T18:18:10.386Z,3.13
2023-05-13T18:20:40.009Z,2.67
2023-05-13T18:23:06.942Z,2.33
2023-05-13T18:25:45.108Z,2.65
2023-05-13T18:28:19.376Z,2.50
2023-05-13T18:30:46.320Z,3.00
2023-05-13T18:33:13.192Z,2.53
2023-05-13T18:35:40.601Z,2.95
2023-05-13T18:38:07.470Z,3.08
2023-05-13T18:40:34.354Z,2.70
2023-05-13T18:43:01.333Z,2.78
2023-05-13T18:45:28.285Z,2.40
2023-05-13T18:47:55.290Z,2.67
2023-05-13T18:50:22.675Z,2.55
2023-05-13T18:52:49.894Z,2.80
2023-05-13T18:55:16.957Z,2.67
2023-05-13T18:57:43.985Z,2.67
2023-05-13T19:00:11.386Z,2.67
2023-05-13T19:02:39.983Z,2.58
2023-05-13T19:05:07.879Z,2.92
2023-05-13T19:07:34.906Z,3.67
2023-05-13T19:10:01.893Z,3.60
2023-05-13T19:12:28.876Z,3.60
2023-05-13T19:14:55.892Z,5.03
2023-05-13T19:17:22.903Z,4.22
2023-05-13T19:19:49.937Z,4.00
2023-05-13T19:22:16.937Z,4.57
2023-05-13T19:24:43.911Z,4.15
2023-05-13T19:27:11.390Z,4.03
2023-05-13T19:29:38.295Z,3.67
2023-05-13T19:32:06.312Z,3.85
2023-05-13T19:34:33.536Z,3.92
2023-05-13T19:37:00.576Z,3.50
2023-05-13T19:39:27.475Z,3.72
2023-05-13T19:41:56.786Z,3.65
2023-05-13T19:44:24.636Z,4.07
2023-05-13T19:46:51.770Z,3.67
2023-05-13T19:49:18.875Z,4.10
2023-05-13T19:51:45.884Z,3.30
2023-05-13T19:54:13.714Z,3.92
2023-05-13T19:56:41.954Z,7.25
2023-05-13T19:59:08.921Z,3.25
2023-05-13T20:01:37.745Z,3.08
2023-05-13T20:04:04.996Z,3.20
2023-05-13T20:06:32.711Z,3.22
2023-05-13T20:09:00.868Z,2.80
2023-05-13T20:11:28.235Z,3.25
2023-05-13T20:13:55.839Z,3.50
2023-05-13T20:16:23.577Z,3.38
2023-05-13T20:18:50.622Z,3.45
2023-05-13T20:21:17.839Z,3.72
2023-05-13T20:23:44.784Z,3.70
2023-05-13T20:26:11.725Z,4.25
2023-05-13T20:28:38.653Z,3.53
2023-05-13T20:31:05.714Z,3.60
2023-05-13T20:33:32.754Z,3.35
2023-05-13T20:35:59.637Z,3.28
2023-05-13T20:38:26.552Z,3.65
2023-05-13T20:40:53.568Z,3.70
2023-05-13T20:43:20.546Z,3.03
2023-05-13T20:45:47.493Z,3.67
2023-05-13T20:48:14.542Z,3.20
2023-05-13T20:50:41.465Z,3.40
2023-05-13T20:53:08.543Z,3.65
2023-05-13T20:55:35.496Z,3.42
2023-05-13T20:58:02.457Z,3.63
2023-05-13T21:00:29.415Z,3.70
2023-05-13T21:02:56.638Z,5.57
2023-05-13T21:05:23.945Z,3.70
2023-05-13T21:07:51.109Z,3.10
2023-05-13T21:10:18.261Z,3.55
2023-05-13T21:12:47.869Z,3.13
2023-05-13T21:15:15.111Z,3.40
2023-05-13T21:17:42.192Z,3.50
2023-05-13T21:20:10.406Z,3.35
2023-05-13T21:22:37.313Z,3.58
2023-05-13T21:25:04.497Z,3.63
2023-05-13T21:27:31.388Z,3.63
2023-05-13T21:29:58.264Z,3.28
2023-05-13T21:32:25.205Z,3.85
2023-05-13T21:34:52.109Z,3.63
2023-05-13T21:37:19.476Z,3.58
2023-05-13T21:39:46.534Z,3.90
2023-05-13T21:42:13.461Z,4.13
2023-05-13T21:44:41.197Z,4.20
2023-05-13T21:47:08.365Z,4.70
2023-05-13T21:49:35.347Z,5.38
2023-05-13T21:52:02.301Z,5.10
2023-05-13T21:54:29.171Z,5.47
2023-05-13T21:56:56.320Z,5.70
2023-05-13T21:59:26.394Z,38.38
2023-05-13T22:01:53.471Z,29.90
2023-05-13T22:04:20.429Z,6.90
2023-05-13T22:06:47.647Z,4.68
2023-05-13T22:09:14.829Z,5.50
2023-05-13T22:11:51.491Z,4.97
2023-05-13T22:14:19.013Z,5.15
2023-05-13T22:17:08.954Z,5.38
2023-05-13T22:19:39.937Z,5.38
2023-05-13T22:22:07.235Z,5.45
2023-05-13T22:24:34.318Z,5.90
2023-05-13T22:27:06.067Z,5.65
2023-05-13T22:29:34.407Z,5.85
2023-05-13T22:32:20.398Z,5.05
2023-05-13T22:34:47.559Z,5.50
2023-05-13T22:37:17.282Z,5.30
2023-05-13T22:39:44.440Z,7.03
2023-05-13T22:42:11.407Z,6.88
2023-05-13T22:44:38.886Z,5.97
2023-05-13T22:47:09.119Z,5.60
2023-05-13T22:49:39.602Z,5.03
2023-05-13T22:52:16.391Z,5.07
2023-05-13T22:54:43.510Z,5.32
2023-05-13T22:57:10.506Z,4.88
2023-05-13T22:59:40.818Z,52.10
2023-05-13T23:02:08.283Z,8.37
2023-05-13T23:04:35.702Z,5.63
2023-05-13T23:07:03.205Z,4.93
2023-05-13T23:09:34.788Z,5.22
2023-05-13T23:12:08.100Z,5.00
2023-05-13T23:14:38.830Z,6.03
2023-05-13T23:17:06.162Z,5.50
2023-05-13T23:19:34.277Z,5.35
2023-05-13T23:22:04.510Z,5.15
2023-05-13T23:24:38.863Z,5.20
2023-05-13T23:27:06.455Z,5.95
2023-05-13T23:29:33.384Z,5.38
2023-05-13T23:32:00.325Z,5.78
2023-05-13T23:34:27.246Z,5.60
2023-05-13T23:36:54.111Z,6.15
2023-05-13T23:39:21.000Z,6.18
2023-05-13T23:41:48.070Z,6.38
2023-05-13T23:44:14.965Z,5.95
2023-05-13T23:46:42.257Z,5.75
2023-05-13T23:49:09.179Z,6.50
2023-05-13T23:51:36.531Z,5.82
2023-05-13T23:54:03.634Z,6.57
2023-05-13T23:56:30.795Z,6.10
2023-05-13T23:58:57.734Z,25.00
